Time;durP1;ratioP1;P1;durP2;ratioP2;P2;SDS_P1;SDS_P2;PMS_P1;PMS_P2;Temp;Humidity;BMP_temperature;BMP_pressure;BME280_temperature;BME280_humidity;BME280_pressure;Samples;Min_cycle;Max_cycle;Signal;HPM_P1;HPM_P2
2021/07/11 00:01:54;;;;;;;27.60;22.92;;;;;;;21.64;81.48;99339.41;5052234;28;20083;-70
2021/07/11 00:04:21;;;;;;;28.42;23.08;;;;;;;21.60;81.18;99341.94;5035058;28;20114;-69
2021/07/11 00:06:47;;;;;;;25.58;22.13;;;;;;;21.55;81.51;99342.06;5052307;28;20059;-69
2021/07/11 00:09:13;;;;;;;28.23;23.27;;;;;;;21.53;81.93;99345.09;5035247;28;20037;-69
2021/07/11 00:11:38;;;;;;;25.80;22.50;;;;;;;21.50;82.28;99339.50;5052724;28;20437;-70
2021/07/11 00:14:08;;;;;;;28.25;24.20;;;;;;;21.48;82.21;99347.91;5051742;28;20041;-69
2021/07/11 00:16:34;;;;;;;26.65;23.58;;;;;;;21.45;82.24;99345.06;5018893;28;20083;-70
2021/07/11 00:19:00;;;;;;;26.20;23.38;;;;;;;21.43;82.35;99344.56;5052985;28;20391;-70
2021/07/11 00:21:26;;;;;;;27.75;23.63;;;;;;;21.40;82.57;99340.59;5051836;28;20388;-69
2021/07/11 00:23:52;;;;;;;26.05;22.80;;;;;;;21.38;82.85;99342.78;5052176;28;20067;-70
2021/07/11 00:26:19;;;;;;;27.40;23.08;;;;;;;21.35;83.12;99346.06;5051553;28;20495;-70
2021/07/11 00:28:46;;;;;;;28.45;24.10;;;;;;;21.33;83.03;99335.63;5035206;28;20414;-69
2021/07/11 00:31:12;;;;;;;27.08;24.13;;;;;;;21.34;82.99;99341.78;5052926;28;20049;-70
2021/07/11 00:33:38;;;;;;;26.83;23.67;;;;;;;21.28;83.23;99341.13;5052695;28;20047;-69
2021/07/11 00:36:05;;;;;;;27.52;24.17;;;;;;;21.26;83.38;99340.63;5051516;28;20056;-69
2021/07/11 00:38:31;;;;;;;28.58;23.67;;;;;;;21.28;83.52;99343.81;5034909;28;20052;-71
2021/07/11 00:40:59;;;;;;;28.95;24.77;;;;;;;21.26;83.80;99346.03;5052607;28;20067;-69
2021/07/11 00:43:28;;;;;;;27.52;24.63;;;;;;;21.25;83.65;99347.13;5034785;28;20040;-69
2021/07/11 00:45:55;;;;;;;27.85;24.52;;;;;;;21.26;83.82;99347.94;5051125;28;20100;-69
2021/07/11 00:48:22;;;;;;;31.20;25.90;;;;;;;21.27;83.86;99350.34;5051235;28;20075;-69
2021/07/11 00:50:48;;;;;;;29.52;23.75;;;;;;;21.28;83.94;99356.50;5050923;28;20087;-69
2021/07/11 00:53:15;;;;;;;30.50;24.80;;;;;;;21.29;83.86;99350.78;5051331;28;20415;-71
2021/07/11 00:55:42;;;;;;;32.65;25.70;;;;;;;21.30;83.90;99346.22;5034740;28;20072;-70
2021/07/11 00:58:10;;;;;;;31.65;24.95;;;;;;;21.33;83.87;99353.69;5050925;28;20147;-70
2021/07/11 01:00:54;;;;;;;28.98;24.40;;;;;;;21.37;83.50;99353.91;5034236;28;20498;-70
2021/07/11 01:03:25;;;;;;;31.67;26.17;;;;;;;21.32;83.76;99350.22;5051335;28;20079;-69
2021/07/11 01:05:54;;;;;;;29.23;26.10;;;;;;;21.29;83.97;99356.19;5034715;28;20056;-70
2021/07/11 01:09:12;;;;;;;33.25;27.33;;;;;;;21.29;84.28;99358.09;5017784;28;20608;-70
2021/07/11 01:11:44;;;;;;;32.13;26.45;;;;;;;21.31;84.20;99354.00;5067351;28;20186;-70
2021/07/11 01:14:13;;;;;;;30.80;26.58;;;;;;;21.32;84.05;99352.91;5051140;28;20057;-69
2021/07/11 01:16:40;;;;;;;30.75;26.60;;;;;;;21.40;83.94;99354.06;5050510;28;20041;-71
2021/07/11 01:19:19;;;;;;;31.95;26.45;;;;;;;21.47;83.76;99357.13;5034090;28;20038;-69
2021/07/11 01:21:52;;;;;;;28.73;25.67;;;;;;;21.57;83.48;99366.84;5034045;28;20079;-69
2021/07/11 01:24:27;;;;;;;33.65;24.98;;;;;;;21.71;82.79;99355.97;5019724;28;20079;-69
2021/07/11 01:26:53;;;;;;;26.77;23.98;;;;;;;21.85;82.39;99355.81;5034136;28;20094;-71
2021/07/11 01:29:20;;;;;;;28.95;24.65;;;;;;;21.89;82.26;99351.41;5034253;28;20037;-69
2021/07/11 01:31:48;;;;;;;27.85;23.50;;;;;;;21.84;82.55;99354.25;5033710;28;20041;-69
2021/07/11 01:34:16;;;;;;;27.98;25.00;;;;;;;21.83;82.02;99364.25;5001154;28;20135;-70
2021/07/11 01:36:42;;;;;;;31.77;25.85;;;;;;;21.76;82.43;99361.97;5034053;28;20053;-70
2021/07/11 01:39:12;;;;;;;32.83;27.60;;;;;;;21.70;82.49;99359.75;5050609;28;20132;-70
2021/07/11 01:41:45;;;;;;;28.95;24.92;;;;;;;21.65;82.82;99365.28;5034238;28;20049;-70
2021/07/11 01:44:12;;;;;;;33.65;26.83;;;;;;;21.61;83.13;99359.72;5050428;28;20045;-70
2021/07/11 01:46:41;;;;;;;29.98;25.40;;;;;;;21.60;83.04;99358.13;5033449;28;20102;-69
2021/07/11 01:49:10;;;;;;;32.13;26.50;;;;;;;21.61;83.04;99362.41;5001429;28;20326;-69
2021/07/11 01:51:37;;;;;;;30.02;26.00;;;;;;;21.65;82.65;99363.38;5017285;28;20418;-69
2021/07/11 01:54:05;;;;;;;33.55;25.88;;;;;;;21.65;83.01;99360.69;5033676;28;20048;-69
2021/07/11 01:56:34;;;;;;;30.88;26.85;;;;;;;21.71;82.87;99362.16;5051260;28;20094;-69
2021/07/11 01:59:04;;;;;;;31.63;26.05;;;;;;;21.72;82.46;99363.72;5033554;28;20142;-70
2021/07/11 02:01:43;;;;;;;33.08;27.42;;;;;;;21.73;82.54;99365.31;5033513;28;20083;-71
2021/07/11 02:04:13;;;;;;;;;;;;;;;21.76;82.40;99361.97;5050462;28;20564;-69
2021/07/11 02:06:41;;;;;;;30.30;26.25;;;;;;;21.80;82.28;99366.78;5033596;28;19924;-69
2021/07/11 02:09:16;;;;;;;31.13;26.75;;;;;;;21.89;81.67;99364.91;5034569;28;20076;-70
2021/07/11 02:11:44;;;;;;;28.38;23.75;;;;;;;22.15;80.90;99373.06;5049493;28;20065;-70
2021/07/11 02:14:24;;;;;;;29.83;25.83;;;;;;;22.19;80.61;99374.84;5033801;28;20041;-69
2021/07/11 02:17:10;;;;;;;29.52;26.30;;;;;;;22.22;80.37;99366.13;5049792;28;20111;-71
2021/07/11 02:19:48;;;;;;;32.50;27.10;;;;;;;22.19;80.15;99361.34;5035263;28;20045;-70
2021/07/11 02:22:16;;;;;;;32.42;27.45;;;;;;;22.13;80.30;99365.28;5033316;28;20063;-70
2021/07/11 02:24:44;;;;;;;30.42;25.48;;;;;;;22.16;80.35;99363.84;5050806;28;20052;-70
2021/07/11 02:27:18;;;;;;;34.90;27.50;;;;;;;22.16;80.23;99366.56;5032965;28;20170;-70
2021/07/11 02:29:45;;;;;;;30.13;25.30;;;;;;;22.16;79.83;99367.34;5050801;28;20051;-70
2021/07/11 02:32:12;;;;;;;32.63;27.73;;;;;;;22.23;79.53;99372.31;5049847;28;20048;-69
2021/07/11 02:34:39;;;;;;;29.48;25.95;;;;;;;22.33;79.59;99374.72;5049626;28;20054;-70
2021/07/11 02:37:08;;;;;;;28.83;24.48;;;;;;;22.52;78.21;99365.50;5049784;28;20045;-69
2021/07/11 02:39:37;;;;;;;26.90;24.10;;;;;;;22.60;77.72;99370.91;5032872;28;20037;-70
2021/07/11 02:42:07;;;;;;;27.35;23.35;;;;;;;22.73;77.74;99379.97;5049727;28;20049;-70
2021/07/11 02:44:35;;;;;;;28.67;25.05;;;;;;;23.00;76.52;99367.25;5033121;28;20526;-70
2021/07/11 02:47:08;;;;;;;25.80;23.08;;;;;;;23.37;74.88;99373.09;5049956;28;20059;-70
2021/07/11 02:49:40;;;;;;;28.42;24.08;;;;;;;23.42;74.59;99379.13;5049570;28;20088;-70
2021/07/11 02:52:11;;;;;;;25.83;23.13;;;;;;;23.71;73.87;99366.78;5032895;28;20049;-69
2021/07/11 02:54:45;;;;;;;25.23;22.52;;;;;;;24.20;71.59;99375.28;5036363;28;20048;-70
2021/07/11 02:57:14;;;;;;;25.77;22.35;;;;;;;24.25;71.03;99370.47;5037165;28;20051;-70
2021/07/11 02:59:41;;;;;;;24.33;21.73;;;;;;;24.30;71.07;99377.63;5053458;28;20519;-70
2021/07/11 03:02:08;;;;;;;28.23;22.75;;;;;;;24.27;71.20;99378.28;5004582;28;20079;-70
2021/07/11 03:04:38;;;;;;;25.02;22.30;;;;;;;24.41;70.49;99380.72;5053081;28;20505;-70
2021/07/11 03:07:06;;;;;;;24.58;22.08;;;;;;;24.91;69.06;99380.69;5036976;28;20060;-70
2021/07/11 03:09:34;;;;;;;25.67;22.92;;;;;;;25.56;66.98;99382.88;5036245;28;20044;-70
2021/07/11 03:12:01;;;;;;;26.77;21.65;;;;;;;25.99;65.25;99382.38;5053181;28;20218;-70
2021/07/11 03:14:28;;;;;;;24.90;22.13;;;;;;;26.39;64.37;99380.88;5036192;28;20502;-69
2021/07/11 03:16:57;;;;;;;23.90;21.50;;;;;;;26.70;63.25;99385.66;5053234;28;20053;-69
2021/07/11 03:19:27;;;;;;;23.27;20.80;;;;;;;26.65;62.21;99380.47;5036770;28;20131;-70
2021/07/11 03:21:55;;;;;;;22.33;20.00;;;;;;;26.82;61.78;99390.25;5053198;28;20498;-70
2021/07/11 03:24:23;;;;;;;23.27;20.85;;;;;;;27.22;59.51;99384.78;5052750;28;20052;-71
2021/07/11 03:26:51;;;;;;;22.67;20.27;;;;;;;27.23;59.27;99378.19;5036288;28;20049;-71
2021/07/11 03:29:35;;;;;;;21.58;19.20;;;;;;;27.48;57.91;99378.84;5019500;28;20037;-70
2021/07/11 03:32:01;;;;;;;21.92;19.52;;;;;;;27.77;57.42;99371.38;5052886;28;20045;-70
2021/07/11 03:34:29;;;;;;;21.75;19.45;;;;;;;27.89;56.99;99376.75;5036157;28;20079;-70
2021/07/11 03:37:08;;;;;;;20.40;18.15;;;;;;;28.00;56.32;99374.25;5052286;28;20077;-70
2021/07/11 03:39:42;;;;;;;21.67;19.58;;;;;;;27.61;57.24;99377.59;5036847;28;20049;-70
2021/07/11 03:42:14;;;;;;;23.80;19.05;;;;;;;27.62;56.67;99368.31;5035951;28;20540;-70
2021/07/11 03:44:47;;;;;;;18.08;15.95;;;;;;;27.82;55.17;99377.34;5052975;28;20049;-71
2021/07/11 03:47:17;;;;;;;17.95;16.05;;;;;;;28.21;54.36;99374.75;5035390;28;20048;-71
2021/07/11 03:49:46;;;;;;;18.27;16.45;;;;;;;28.31;53.63;99378.84;5035652;28;20065;-70
2021/07/11 03:52:13;;;;;;;17.52;15.82;;;;;;;28.48;52.39;99377.69;5052145;28;20045;-70
2021/07/11 03:54:39;;;;;;;18.63;15.43;;;;;;;28.57;52.04;99382.94;5053811;28;20047;-70
2021/07/11 03:57:06;;;;;;;17.63;15.70;;;;;;;28.52;52.32;99378.53;5052487;28;20044;-69
2021/07/11 03:59:33;;;;;;;16.58;14.85;;;;;;;28.62;51.76;99379.91;5068533;28;20135;-70
2021/07/11 04:02:03;;;;;;;15.70;13.07;;;;;;;28.68;50.33;99378.50;5052337;28;20055;-70
2021/07/11 04:04:30;;;;;;;15.02;12.63;;;;;;;28.65;48.70;99377.28;5051963;28;20441;-70
2021/07/11 04:06:57;;;;;;;15.15;12.30;;;;;;;28.63;48.70;99365.94;5053644;28;20076;-71
2021/07/11 04:09:23;;;;;;;15.18;12.73;;;;;;;28.64;48.80;99378.41;5053289;28;20075;-70
2021/07/11 04:11:49;;;;;;;13.75;12.20;;;;;;;28.61;48.14;99379.13;5051545;28;20061;-71
2021/07/11 04:14:16;;;;;;;15.02;12.80;;;;;;;28.56;48.65;99364.97;5035325;28;20040;-70
2021/07/11 04:16:43;;;;;;;17.30;13.13;;;;;;;28.76;49.03;99380.19;5018808;28;20072;-70
2021/07/11 04:19:09;;;;;;;15.70;12.13;;;;;;;28.82;47.68;99386.94;5035181;28;20502;-70
2021/07/11 04:21:36;;;;;;;13.40;12.00;;;;;;;28.66;47.07;99386.25;5051777;28;20053;-70
2021/07/11 04:24:03;;;;;;;13.00;11.65;;;;;;;28.68;46.75;99384.75;5035302;28;20506;-70
2021/07/11 04:26:33;;;;;;;15.80;11.02;;;;;;;28.83;46.29;99387.75;5051509;28;20169;-70
2021/07/11 04:29:00;;;;;;;13.15;11.48;;;;;;;28.89;46.12;99381.63;5052039;28;20044;-70
2021/07/11 04:31:26;;;;;;;18.02;12.15;;;;;;;28.86;45.70;99393.28;5051516;28;20053;-70
2021/07/11 04:33:52;;;;;;;16.90;11.68;;;;;;;28.95;45.36;99382.13;5051985;28;20056;-70
2021/07/11 04:36:18;;;;;;;13.50;10.95;;;;;;;29.14;46.26;99390.31;5051630;28;20183;-71
2021/07/11 04:38:44;;;;;;;13.35;12.05;;;;;;;29.19;45.37;99381.06;5052972;28;20041;-70
2021/07/11 04:41:11;;;;;;;13.55;12.02;;;;;;;29.11;45.56;99393.78;5034658;28;20515;-70
2021/07/11 04:43:38;;;;;;;12.68;11.40;;;;;;;29.19;46.02;99391.97;5052685;28;20041;-71
2021/07/11 04:46:04;;;;;;;14.05;11.13;;;;;;;29.25;45.60;99395.97;5052777;28;20049;-71
2021/07/11 04:48:30;;;;;;;16.35;11.60;;;;;;;29.21;44.53;99392.41;5034617;28;20047;-70
2021/07/11 04:50:56;;;;;;;12.65;11.40;;;;;;;29.12;44.81;99397.28;5051179;28;20067;-70
2021/07/11 04:53:21;;;;;;;13.27;11.55;;;;;;;29.19;45.63;99392.75;5051199;28;20033;-71
2021/07/11 04:55:48;;;;;;;12.38;11.20;;;;;;;29.31;45.35;99399.19;5034354;28;20045;-70
2021/07/11 04:58:15;;;;;;;13.75;12.27;;;;;;;29.31;44.87;99391.78;5034501;28;20510;-71
2021/07/11 05:00:42;;;;;;;12.40;11.00;;;;;;;29.42;44.56;99397.44;5034629;28;20045;-70
2021/07/11 05:03:08;;;;;;;17.60;12.32;;;;;;;29.53;44.11;99397.63;5050787;28;20576;-71
2021/07/11 05:05:37;;;;;;;11.50;10.40;;;;;;;29.74;44.14;99397.22;5052071;28;20100;-70
2021/07/11 05:08:03;;;;;;;14.35;11.98;;;;;;;29.71;44.28;99404.22;5050847;28;20445;-70
2021/07/11 05:10:29;;;;;;;11.95;10.77;;;;;;;29.69;43.71;99403.78;5051711;28;20088;-69
2021/07/11 05:12:55;;;;;;;13.23;11.15;;;;;;;29.73;43.39;99398.38;5050810;28;20041;-71
2021/07/11 05:15:20;;;;;;;13.10;10.65;;;;;;;29.62;44.28;99395.47;5050615;28;20052;-72
2021/07/11 05:17:46;;;;;;;16.63;11.27;;;;;;;29.52;44.42;99402.28;5051305;28;20041;-70
2021/07/11 05:20:12;;;;;;;17.10;11.48;;;;;;;29.36;44.24;99401.63;5051879;28;20080;-69
2021/07/11 05:22:38;;;;;;;14.43;10.73;;;;;;;29.28;44.05;99400.72;5051768;28;20040;-71
2021/07/11 05:25:05;;;;;;;12.73;10.40;;;;;;;29.47;44.02;99394.41;5050421;28;20049;-70
2021/07/11 05:27:31;;;;;;;14.25;10.35;;;;;;;29.51;43.01;99400.72;5067024;28;20039;-70
2021/07/11 05:29:57;;;;;;;13.98;11.25;;;;;;;29.40;43.44;99395.06;5050747;28;20041;-70
2021/07/11 05:32:23;;;;;;;12.40;10.07;;;;;;;29.35;43.04;99398.09;5033815;28;20041;-70
2021/07/11 05:34:49;;;;;;;10.38;9.23;;;;;;;29.27;42.77;99401.88;5033726;28;20041;-70
2021/07/11 05:37:15;;;;;;;10.80;9.52;;;;;;;29.22;42.92;99396.69;5050307;28;20064;-72
2021/07/11 05:39:40;;;;;;;10.13;9.02;;;;;;;29.05;42.73;99394.44;5051749;28;20407;-70
2021/07/11 05:42:06;;;;;;;9.75;8.85;;;;;;;29.04;42.71;99395.59;5051678;28;20486;-71
2021/07/11 05:44:32;;;;;;;9.98;8.27;;;;;;;29.12;42.82;99403.56;5049243;28;20053;-70
2021/07/11 05:46:58;;;;;;;13.05;9.02;;;;;;;29.06;42.20;99396.00;5049786;28;20049;-71
2021/07/11 05:49:25;;;;;;;8.88;8.07;;;;;;;29.01;41.63;99402.53;5049643;28;20121;-69
2021/07/11 05:51:51;;;;;;;9.00;8.10;;;;;;;28.97;40.94;99402.47;5052203;28;20060;-68
2021/07/11 05:54:17;;;;;;;10.73;8.00;;;;;;;28.92;42.82;99397.28;5051032;28;20045;-67
2021/07/11 05:56:43;;;;;;;7.57;6.72;;;;;;;28.93;40.95;99403.53;5049596;28;20056;-69
2021/07/11 05:59:09;;;;;;;8.30;7.50;;;;;;;28.95;40.41;99404.75;5032931;28;20048;-67
2021/07/11 06:01:35;;;;;;;8.68;6.25;;;;;;;28.94;38.74;99405.09;5033213;28;20045;-68
2021/07/11 06:04:01;;;;;;;6.60;5.90;;;;;;;28.87;38.12;99413.94;5050644;28;20052;-68
2021/07/11 06:06:27;;;;;;;9.25;7.00;;;;;;;28.81;39.15;99409.13;5052427;28;20545;-73
2021/07/11 06:08:53;;;;;;;9.02;7.50;;;;;;;28.84;39.16;99402.97;5052560;28;20434;-70
2021/07/11 06:11:19;;;;;;;9.15;7.47;;;;;;;28.88;40.16;99412.78;5052439;28;20075;-69
2021/07/11 06:13:46;;;;;;;8.43;7.45;;;;;;;28.78;40.02;99409.84;5052513;28;20083;-70
2021/07/11 06:16:12;;;;;;;7.75;7.03;;;;;;;28.82;40.15;99416.16;5068415;28;20124;-70
2021/07/11 06:18:38;;;;;;;10.13;7.20;;;;;;;28.86;40.27;99419.78;5036027;28;20033;-70
2021/07/11 06:21:04;;;;;;;7.70;6.78;;;;;;;28.93;40.08;99419.91;5051741;28;20055;-70
2021/07/11 06:23:30;;;;;;;8.18;7.28;;;;;;;28.85;39.54;99407.25;5070612;28;20058;-74
2021/07/11 06:25:56;;;;;;;11.35;7.28;;;;;;;28.80;39.76;99408.34;5068991;28;20477;-73
2021/07/11 06:28:22;;;;;;;8.48;6.70;;;;;;;28.74;40.75;99410.56;5071709;28;20041;-71
2021/07/11 06:30:48;;;;;;;10.18;7.20;;;;;;;28.86;40.00;99401.47;5039579;28;20051;-72
2021/07/11 06:33:14;;;;;;;7.78;7.07;;;;;;;28.98;39.96;99405.97;5073076;28;20036;-69
2021/07/11 06:35:39;;;;;;;10.85;7.20;;;;;;;29.04;39.77;99417.41;5073818;28;20068;-71
2021/07/11 06:38:06;;;;;;;8.70;7.30;;;;;;;29.12;39.49;99406.28;5056531;28;20127;-70
2021/07/11 06:40:32;;;;;;;7.80;7.10;;;;;;;29.05;39.44;99397.16;5056028;28;20044;-69
2021/07/11 06:42:58;;;;;;;9.43;7.60;;;;;;;29.09;39.72;99403.47;5072993;28;20047;-67
2021/07/11 06:45:24;;;;;;;9.25;6.88;;;;;;;29.08;39.24;99390.97;5072694;28;20081;-67
2021/07/11 06:47:50;;;;;;;9.38;7.07;;;;;;;28.96;38.84;99403.59;5072767;28;20059;-69
2021/07/11 06:50:17;;;;;;;7.78;6.97;;;;;;;28.85;38.83;99397.13;5073761;28;20101;-69
2021/07/11 06:52:44;;;;;;;7.85;7.05;;;;;;;28.85;39.43;99399.06;5073638;28;20036;-70
2021/07/11 06:55:11;;;;;;;7.60;6.85;;;;;;;28.88;39.09;99396.41;5072099;28;20128;-71
2021/07/11 06:57:40;;;;;;;8.60;7.40;;;;;;;28.96;38.71;99400.88;5073931;28;20045;-73
2021/07/11 07:00:08;;;;;;;7.47;6.82;;;;;;;29.02;39.92;99397.84;5073545;28;20044;-70
2021/07/11 07:02:34;;;;;;;8.77;6.07;;;;;;;29.11;39.67;99396.50;5056049;28;20732;-69
2021/07/11 07:05:01;;;;;;;11.75;6.32;;;;;;;29.14;38.20;99392.25;5072121;28;20063;-69
2021/07/11 07:07:27;;;;;;;7.85;7.13;;;;;;;29.07;38.71;99387.47;5071872;28;20040;-68
2021/07/11 07:09:52;;;;;;;7.30;6.70;;;;;;;29.03;38.81;99392.03;5038723;28;20394;-69
2021/07/11 07:12:18;;;;;;;8.10;7.05;;;;;;;29.08;39.00;99394.50;5073815;28;20532;-73
2021/07/11 07:14:44;;;;;;;7.75;6.68;;;;;;;29.09;39.16;99398.81;5056204;28;20539;-71
2021/07/11 07:17:10;;;;;;;7.00;5.85;;;;;;;29.10;38.64;99400.38;5072163;28;20145;-67
2021/07/11 07:19:36;;;;;;;7.53;6.70;;;;;;;29.14;39.10;99400.44;5055776;28;20047;-69
2021/07/11 07:22:02;;;;;;;7.38;6.55;;;;;;;29.16;38.51;99388.03;5072360;28;20055;-69
2021/07/11 07:24:28;;;;;;;7.35;6.68;;;;;;;29.19;38.42;99402.88;5039364;28;20040;-70
2021/07/11 07:26:54;;;;;;;6.22;5.63;;;;;;;29.23;37.84;99400.22;5072848;28;20056;-71
2021/07/11 07:29:21;;;;;;;7.25;6.10;;;;;;;29.18;37.49;99404.06;5072753;28;20033;-69
2021/07/11 07:31:47;;;;;;;7.55;6.80;;;;;;;29.17;38.27;99399.72;5073583;28;20129;-74
2021/07/11 07:34:14;;;;;;;6.80;6.20;;;;;;;29.18;39.19;99401.31;5071847;28;20047;-69
2021/07/11 07:36:40;;;;;;;7.07;6.03;;;;;;;29.02;38.88;99404.13;5072785;28;20146;-74
2021/07/11 07:39:06;;;;;;;6.82;5.90;;;;;;;28.96;39.51;99387.22;5072701;28;20045;-73
2021/07/11 07:41:33;;;;;;;6.60;5.90;;;;;;;29.04;38.98;99406.50;5072019;28;20093;-73
2021/07/11 07:44:01;;;;;;;7.15;6.45;;;;;;;29.01;38.64;99404.47;5055583;28;20047;-75
2021/07/11 07:46:26;;;;;;;7.10;6.40;;;;;;;29.01;39.34;99399.00;5071647;28;20037;-71
2021/07/11 07:48:52;;;;;;;6.90;6.20;;;;;;;29.04;39.29;99403.78;5073480;28;20051;-71
2021/07/11 07:51:18;;;;;;;8.50;6.63;;;;;;;29.13;39.97;99409.78;5054517;28;20057;-71
2021/07/11 07:53:44;;;;;;;6.82;6.18;;;;;;;29.06;38.96;99396.81;5071718;28;20040;-75
2021/07/11 07:56:10;;;;;;;8.00;7.20;;;;;;;29.11;39.29;99406.63;5054992;28;20078;-72
2021/07/11 07:58:36;;;;;;;7.18;6.57;;;;;;;29.14;39.86;99406.69;5055101;28;20557;-72
2021/07/11 08:01:02;;;;;;;9.20;7.55;;;;;;;29.20;40.02;99399.00;5054538;28;20048;-69
2021/07/11 08:03:28;;;;;;;7.93;6.90;;;;;;;29.16;39.71;99404.41;5055300;28;20075;-72
2021/07/11 08:05:54;;;;;;;8.43;7.03;;;;;;;29.06;39.29;99396.81;5072786;28;20072;-72
2021/07/11 08:08:20;;;;;;;7.28;6.68;;;;;;;29.11;39.64;99396.50;5054675;28;20237;-72
2021/07/11 08:10:46;;;;;;;8.13;7.38;;;;;;;29.16;39.48;99390.75;5054092;28;20064;-72
2021/07/11 08:13:12;;;;;;;8.18;7.07;;;;;;;29.14;39.27;99395.78;5071455;28;20041;-71
2021/07/11 08:15:38;;;;;;;8.18;7.38;;;;;;;29.07;39.46;99395.66;5072714;28;20075;-72
2021/07/11 08:18:04;;;;;;;7.78;6.97;;;;;;;29.01;39.86;99390.81;5071173;28;20059;-70
2021/07/11 08:20:30;;;;;;;7.72;7.03;;;;;;;29.03;39.52;99402.97;5071843;28;20205;-71
2021/07/11 08:22:56;;;;;;;7.03;6.38;;;;;;;29.11;38.90;99398.44;5071121;28;20094;-72
2021/07/11 08:25:23;;;;;;;6.95;6.13;;;;;;;29.09;37.94;99387.91;5072459;28;20036;-71
2021/07/11 08:27:49;;;;;;;9.65;6.80;;;;;;;29.16;38.22;99396.22;5072497;28;20047;-70
2021/07/11 08:30:17;;;;;;;7.03;6.32;;;;;;;29.16;37.44;99389.97;5072196;28;20086;-72
2021/07/11 08:32:43;;;;;;;7.32;6.30;;;;;;;29.18;38.17;99387.66;5070554;28;20048;-67
2021/07/11 08:35:10;;;;;;;7.53;6.82;;;;;;;29.16;37.91;99392.69;5069862;28;20062;-75
2021/07/11 08:37:38;;;;;;;7.40;6.35;;;;;;;29.22;38.13;99393.97;5020315;28;20072;-70
2021/07/11 08:40:07;;;;;;;9.75;6.95;;;;;;;29.23;37.84;99384.63;5037088;28;20508;-66
2021/07/11 08:42:40;;;;;;;7.28;6.40;;;;;;;29.32;37.96;99387.13;5054793;28;20056;-68
2021/07/11 08:45:08;;;;;;;7.95;7.15;;;;;;;29.31;38.18;99380.09;5070631;28;20048;-70
2021/07/11 08:47:37;;;;;;;9.43;8.43;;;;;;;29.34;39.03;99376.63;5054301;28;20478;-70
2021/07/11 08:50:05;;;;;;;7.20;6.60;;;;;;;29.31;38.81;99382.81;5053399;28;20040;-68
2021/07/11 08:52:31;;;;;;;8.10;7.30;;;;;;;29.34;39.06;99376.63;5070829;28;20052;-71
2021/07/11 08:55:03;;;;;;;8.52;7.72;;;;;;;29.16;39.18;99377.09;5071652;28;20126;-67
2021/07/11 08:57:29;;;;;;;8.35;7.43;;;;;;;29.19;39.54;99379.09;5070262;28;20106;-73
2021/07/11 08:59:55;;;;;;;7.35;6.70;;;;;;;29.27;39.36;99371.84;5053844;28;20518;-72
2021/07/11 09:02:21;;;;;;;7.93;7.22;;;;;;;29.32;38.57;99365.28;5070441;28;20553;-75
2021/07/11 09:04:47;;;;;;;10.20;8.60;;;;;;;29.37;38.74;99376.69;5053345;28;20086;-75
2021/07/11 09:07:17;;;;;;;8.52;7.63;;;;;;;29.32;38.79;99374.25;5070381;28;20063;-73
2021/07/11 09:09:43;;;;;;;8.20;7.40;;;;;;;29.37;39.02;99379.41;5053901;28;20041;-71
2021/07/11 09:12:13;;;;;;;8.48;7.03;;;;;;;29.32;39.56;99368.00;5069906;28;20060;-70
2021/07/11 09:14:43;;;;;;;;;;;;;;;29.38;38.53;99378.25;5072585;28;20043;-72
2021/07/11 09:17:12;;;;;;;;;;;;;;;29.52;38.50;99376.94;5070105;28;19928;-71
2021/07/11 09:19:49;;;;;;;7.77;7.07;;;;;;;29.65;38.92;99375.63;5069187;28;20405;-71
2021/07/11 09:22:23;;;;;;;7.97;7.25;;;;;;;29.62;38.42;99370.88;5036475;28;20326;-72
2021/07/11 09:24:54;;;;;;;8.38;7.57;;;;;;;29.65;38.73;99376.41;5050832;28;20486;-71
2021/07/11 09:27:25;;;;;;;8.77;6.85;;;;;;;29.72;38.61;99373.00;5052743;28;20036;-68
2021/07/11 09:29:51;;;;;;;7.78;6.78;;;;;;;29.75;38.63;99376.94;5069671;28;20041;-72
2021/07/11 09:32:26;;;;;;;9.25;6.93;;;;;;;29.87;38.14;99366.59;5053219;28;20049;-72
2021/07/11 09:34:53;;;;;;;7.57;6.97;;;;;;;29.95;38.18;99374.91;5071315;28;20124;-69
2021/07/11 09:37:21;;;;;;;8.13;6.78;;;;;;;30.05;38.11;99366.84;5036853;28;20505;-74
2021/07/11 09:39:52;;;;;;;14.20;11.68;;;;;;;30.29;38.34;99379.31;5069957;28;20160;-73
2021/07/11 09:42:23;;;;;;;8.23;7.40;;;;;;;30.10;38.18;99382.94;5070873;28;20084;-72
2021/07/11 09:44:49;;;;;;;8.43;7.60;;;;;;;29.74;39.18;99378.91;5071371;28;20036;-72
2021/07/11 09:47:20;;;;;;;7.78;7.05;;;;;;;29.71;39.60;99379.63;5071111;28;20067;-70
2021/07/11 09:50:04;;;;;;;7.95;7.15;;;;;;;29.90;39.60;99376.00;5069216;28;20119;-73
2021/07/11 09:52:32;;;;;;;9.10;6.90;;;;;;;30.01;38.97;99368.75;5053099;28;20137;-70
2021/07/11 09:55:13;;;;;;;7.43;6.75;;;;;;;30.15;38.74;99372.84;5069700;28;20616;-68
2021/07/11 09:57:47;;;;;;;7.47;6.72;;;;;;;30.05;39.00;99366.84;5069781;28;20123;-69
2021/07/11 10:00:25;;;;;;;8.13;6.97;;;;;;;29.99;39.17;99370.28;5071217;28;20090;-70
2021/07/11 10:02:54;;;;;;;8.32;7.53;;;;;;;29.94;38.62;99363.19;5069273;28;20540;-70
2021/07/11 10:05:21;;;;;;;8.25;6.97;;;;;;;30.15;37.67;99359.19;5052642;28;20063;-70
2021/07/11 10:07:47;;;;;;;7.97;7.20;;;;;;;30.33;37.81;99357.53;5071144;28;20067;-70
2021/07/11 10:10:15;;;;;;;8.32;7.47;;;;;;;30.47;37.45;99360.44;5070810;28;20501;-70
2021/07/11 10:12:42;;;;;;;;;;;;;;;30.66;36.87;99366.91;5053488;28;20090;-69
2021/07/11 10:15:12;;;;;;;11.15;7.00;;;;;;;30.59;37.52;99358.59;5036026;28;19964;-69
2021/07/11 10:17:43;;;;;;;8.13;7.32;;;;;;;30.39;37.53;99363.47;5069752;28;20053;-69
2021/07/11 10:20:10;;;;;;;7.30;6.70;;;;;;;30.22;38.10;99351.91;5069439;28;20048;-71
2021/07/11 10:22:44;;;;;;;7.70;6.95;;;;;;;30.04;37.89;99369.97;5069684;28;20041;-70
2021/07/11 10:25:12;;;;;;;7.43;6.72;;;;;;;30.11;37.05;99364.59;5036363;28;20048;-70
2021/07/11 10:27:38;;;;;;;7.22;6.53;;;;;;;30.19;37.24;99360.81;5069490;28;20041;-69
2021/07/11 10:30:05;;;;;;;8.38;7.57;;;;;;;30.49;36.61;99352.63;5069189;28;20040;-68
2021/07/11 10:32:32;;;;;;;8.07;7.00;;;;;;;30.59;36.18;99362.16;5070343;28;20457;-70
2021/07/11 10:35:09;;;;;;;9.00;6.65;;;;;;;30.57;35.78;99347.25;5068884;28;20080;-68
2021/07/11 10:37:49;;;;;;;7.90;7.20;;;;;;;30.55;35.98;99358.56;5070495;28;20045;-66
2021/07/11 10:40:19;;;;;;;8.07;6.82;;;;;;;30.35;35.70;99359.88;5070666;28;20501;-71
2021/07/11 10:42:45;;;;;;;;;;;;;;;30.15;36.35;99361.91;5052988;28;20044;-68
2021/07/11 10:45:13;;;;;;;7.13;6.53;;;;;;;30.10;36.43;99352.88;5069174;28;19924;-72
2021/07/11 10:47:40;;;;;;;7.47;6.78;;;;;;;30.15;36.98;99340.84;5071111;28;20068;-71
2021/07/11 10:50:28;;;;;;;7.10;6.40;;;;;;;30.30;36.74;99347.31;5069152;28;20613;-67
2021/07/11 10:52:56;;;;;;;7.55;6.82;;;;;;;30.45;36.84;99340.09;5070699;28;20461;-69
2021/07/11 10:55:22;;;;;;;7.75;7.05;;;;;;;30.37;36.37;99343.88;5069555;28;20066;-70
2021/07/11 10:57:48;;;;;;;7.95;7.07;;;;;;;30.23;37.12;99367.13;5069640;28;20417;-69
2021/07/11 11:00:17;;;;;;;8.30;6.93;;;;;;;30.01;36.97;99349.63;5069421;28;20044;-70
2021/07/11 11:02:45;;;;;;;7.65;6.85;;;;;;;29.84;36.89;99350.16;5070970;28;20053;-70
2021/07/11 11:05:20;;;;;;;7.15;6.55;;;;;;;29.80;36.72;99343.88;5070483;28;20045;-70
2021/07/11 11:07:55;;;;;;;7.47;6.07;;;;;;;29.75;37.15;99344.16;5053162;28;20052;-70
2021/07/11 11:10:27;;;;;;;7.22;6.53;;;;;;;29.80;36.94;99338.41;5069340;28;20458;-71
2021/07/11 11:13:03;;;;;;;8.30;7.50;;;;;;;29.84;36.99;99334.56;5052662;28;20417;-70
2021/07/11 11:15:35;;;;;;;7.85;6.82;;;;;;;29.90;37.44;99343.22;5072381;28;20040;-71
2021/07/11 11:18:24;;;;;;;7.68;6.75;;;;;;;29.98;37.16;99342.16;5073110;28;20052;-69
2021/07/11 11:20:52;;;;;;;;;;;;;;;30.11;37.05;99334.53;5040270;28;20039;-70
2021/07/11 11:23:17;;;;;;;6.80;6.20;;;;;;;30.13;36.41;99329.50;5073008;28;19931;-70
2021/07/11 11:25:44;;;;;;;7.57;6.78;;;;;;;30.12;36.09;99336.13;5056334;28;20033;-70
2021/07/11 11:28:12;;;;;;;7.00;6.40;;;;;;;30.17;36.23;99330.31;5056211;28;20445;-69
2021/07/11 11:30:38;;;;;;;9.10;6.88;;;;;;;30.02;36.60;99328.56;5056354;28;20501;-72
2021/07/11 11:33:05;;;;;;;9.63;8.40;;;;;;;29.95;36.05;99325.72;5056052;28;20060;-70